sensor_id;sensor_type;location;lat;lon;timestamp;temperature;humidity
56426;DHT22;42330;43.620;3.856;2022-12-18T00:01:02;1.50;99.90
56426;DHT22;42330;43.620;3.856;2022-12-18T00:03:33;1.50;99.90
56426;DHT22;42330;43.620;3.856;2022-12-18T00:05:59;1.50;99.90
56426;DHT22;42330;43.620;3.856;2022-12-18T00:08:24;1.40;99.90
56426;DHT22;42330;43.620;3.856;2022-12-18T00:10:50;1.40;99.90
56426;DHT22;42330;43.620;3.856;2022-12-18T00:13:16;1.50;99.90
56426;DHT22;42330;43.620;3.856;2022-12-18T00:15:41;1.50;99.90
56426;DHT22;42330;43.620;3.856;2022-12-18T00:18:07;1.40;99.90
56426;DHT22;42330;43.620;3.856;2022-12-18T00:20:37;1.50;99.90
56426;DHT22;42330;43.620;3.856;2022-12-18T00:23:04;1.30;99.90
56426;DHT22;42330;43.620;3.856;2022-12-18T00:25:29;1.20;99.90
56426;DHT22;42330;43.620;3.856;2022-12-18T00:27:57;1.20;99.90
56426;DHT22;42330;43.620;3.856;2022-12-18T00:30:23;1.30;99.90
56426;DHT22;42330;43.620;3.856;2022-12-18T00:32:48;1.40;99.90
56426;DHT22;42330;43.620;3.856;2022-12-18T00:35:14;1.30;99.90
56426;DHT22;42330;43.620;3.856;2022-12-18T00:37:40;1.30;99.90
56426;DHT22;42330;43.620;3.856;2022-12-18T00:40:06;1.30;99.90
56426;DHT22;42330;43.620;3.856;2022-12-18T00:42:31;1.30;99.90
56426;DHT22;42330;43.620;3.856;2022-12-18T00:45:16;1.20;99.90
56426;DHT22;42330;43.620;3.856;2022-12-18T00:47:42;1.10;99.90
56426;DHT22;42330;43.620;3.856;2022-12-18T00:50:08;1.20;99.90
56426;DHT22;42330;43.620;3.856;2022-12-18T00:52:33;1.20;99.90
56426;DHT22;42330;43.620;3.856;2022-12-18T00:54:59;1.30;99.90
56426;DHT22;42330;43.620;3.856;2022-12-18T00:57:25;1.10;99.90
56426;DHT22;42330;43.620;3.856;2022-12-18T00:59:50;1.00;99.90
56426;DHT22;42330;43.620;3.856;2022-12-18T01:02:16;0.90;99.90
56426;DHT22;42330;43.620;3.856;2022-12-18T01:04:42;0.90;99.90
56426;DHT22;42330;43.620;3.856;2022-12-18T01:07:07;0.90;99.90
56426;DHT22;42330;43.620;3.856;2022-12-18T01:09:33;1.10;99.90
56426;DHT22;42330;43.620;3.856;2022-12-18T01:11:59;1.30;99.90
56426;DHT22;42330;43.620;3.856;2022-12-18T01:14:25;1.40;99.90
56426;DHT22;42330;43.620;3.856;2022-12-18T01:16:51;1.40;99.90
56426;DHT22;42330;43.620;3.856;2022-12-18T01:19:16;1.30;99.90
56426;DHT22;42330;43.620;3.856;2022-12-18T01:21:42;1.20;99.90
56426;DHT22;42330;43.620;3.856;2022-12-18T01:24:09;1.30;99.90
56426;DHT22;42330;43.620;3.856;2022-12-18T01:26:36;1.50;99.90
56426;DHT22;42330;43.620;3.856;2022-12-18T01:29:02;1.60;99.90
56426;DHT22;42330;43.620;3.856;2022-12-18T01:31:30;1.70;99.90
56426;DHT22;42330;43.620;3.856;2022-12-18T01:33:57;1.60;99.90
56426;DHT22;42330;43.620;3.856;2022-12-18T01:36:28;1.50;99.90
56426;DHT22;42330;43.620;3.856;2022-12-18T01:38:55;1.40;99.90
56426;DHT22;42330;43.620;3.856;2022-12-18T01:41:26;1.30;99.90
56426;DHT22;42330;43.620;3.856;2022-12-18T01:43:55;1.10;99.90
56426;DHT22;42330;43.620;3.856;2022-12-18T01:46:26;1.20;99.90
56426;DHT22;42330;43.620;3.856;2022-12-18T01:49:00;1.30;99.90
56426;DHT22;42330;43.620;3.856;2022-12-18T01:51:27;1.20;99.90
56426;DHT22;42330;43.620;3.856;2022-12-18T01:53:53;1.20;99.90
56426;DHT22;42330;43.620;3.856;2022-12-18T01:56:20;1.10;99.90
56426;DHT22;42330;43.620;3.856;2022-12-18T02:01:16;1.30;99.90
56426;DHT22;42330;43.620;3.856;2022-12-18T02:03:45;1.50;99.90
56426;DHT22;42330;43.620;3.856;2022-12-18T02:06:43;1.60;99.90
56426;DHT22;42330;43.620;3.856;2022-12-18T02:09:11;1.60;99.90
56426;DHT22;42330;43.620;3.856;2022-12-18T02:17:22;1.50;99.90
56426;DHT22;42330;43.620;3.856;2022-12-18T02:28:11;1.50;99.90
56426;DHT22;42330;43.620;3.856;2022-12-18T02:30:39;1.50;99.90
56426;DHT22;42330;43.620;3.856;2022-12-18T02:33:08;1.50;99.90
56426;DHT22;42330;43.620;3.856;2022-12-18T02:35:35;1.40;99.90
56426;DHT22;42330;43.620;3.856;2022-12-18T02:38:03;1.50;99.90
56426;DHT22;42330;43.620;3.856;2022-12-18T02:40:29;1.40;99.90
56426;DHT22;42330;43.620;3.856;2022-12-18T02:43:01;1.30;99.90
56426;DHT22;42330;43.620;3.856;2022-12-18T02:45:27;1.40;99.90
56426;DHT22;42330;43.620;3.856;2022-12-18T02:47:53;1.40;99.90
56426;DHT22;42330;43.620;3.856;2022-12-18T02:50:43;1.30;99.90
56426;DHT22;42330;43.620;3.856;2022-12-18T03:01:31;1.60;99.90
56426;DHT22;42330;43.620;3.856;2022-12-18T03:04:06;1.70;99.90
56426;DHT22;42330;43.620;3.856;2022-12-18T03:06:41;1.70;99.90
56426;DHT22;42330;43.620;3.856;2022-12-18T03:09:32;1.70;99.90
56426;DHT22;42330;43.620;3.856;2022-12-18T03:12:32;1.60;99.90
56426;DHT22;42330;43.620;3.856;2022-12-18T03:17:36;1.40;99.90
56426;DHT22;42330;43.620;3.856;2022-12-18T03:20:12;1.40;99.90
56426;DHT22;42330;43.620;3.856;2022-12-18T03:22:38;1.20;99.90
56426;DHT22;42330;43.620;3.856;2022-12-18T03:25:08;1.20;99.90
56426;DHT22;42330;43.620;3.856;2022-12-18T03:27:38;1.30;99.90
56426;DHT22;42330;43.620;3.856;2022-12-18T03:30:08;1.20;99.90
56426;DHT22;42330;43.620;3.856;2022-12-18T03:32:47;1.40;99.90
56426;DHT22;42330;43.620;3.856;2022-12-18T03:35:28;1.40;99.90
56426;DHT22;42330;43.620;3.856;2022-12-18T03:37:54;1.50;99.90
56426;DHT22;42330;43.620;3.856;2022-12-18T03:40:26;1.50;99.90
56426;DHT22;42330;43.620;3.856;2022-12-18T03:43:08;1.50;99.90
56426;DHT22;42330;43.620;3.856;2022-12-18T03:45:44;1.60;99.90
56426;DHT22;42330;43.620;3.856;2022-12-18T03:48:21;1.70;99.90
56426;DHT22;42330;43.620;3.856;2022-12-18T03:51:02;1.60;99.90
56426;DHT22;42330;43.620;3.856;2022-12-18T03:56:15;1.60;99.90
56426;DHT22;42330;43.620;3.856;2022-12-18T03:58:42;1.60;99.90
56426;DHT22;42330;43.620;3.856;2022-12-18T04:01:11;1.50;99.90
56426;DHT22;42330;43.620;3.856;2022-12-18T04:03:39;1.50;99.90
56426;DHT22;42330;43.620;3.856;2022-12-18T04:06:06;1.50;99.90
56426;DHT22;42330;43.620;3.856;2022-12-18T04:08:33;1.40;99.90
56426;DHT22;42330;43.620;3.856;2022-12-18T04:11:00;1.30;99.90
56426;DHT22;42330;43.620;3.856;2022-12-18T04:13:34;1.20;99.90
56426;DHT22;42330;43.620;3.856;2022-12-18T04:16:00;1.30;99.90
56426;DHT22;42330;43.620;3.856;2022-12-18T04:18:26;1.50;99.90
56426;DHT22;42330;43.620;3.856;2022-12-18T04:20:52;1.60;99.90
56426;DHT22;42330;43.620;3.856;2022-12-18T04:23:18;1.60;99.90
56426;DHT22;42330;43.620;3.856;2022-12-18T04:25:43;1.50;99.90
56426;DHT22;42330;43.620;3.856;2022-12-18T04:28:09;1.40;99.90
56426;DHT22;42330;43.620;3.856;2022-12-18T04:30:35;1.20;99.90
56426;DHT22;42330;43.620;3.856;2022-12-18T04:33:00;1.20;99.90
56426;DHT22;42330;43.620;3.856;2022-12-18T04:35:26;1.10;99.90
56426;DHT22;42330;43.620;3.856;2022-12-18T04:37:52;1.20;99.90
56426;DHT22;42330;43.620;3.856;2022-12-18T04:40:18;1.30;99.90
56426;DHT22;42330;43.620;3.856;2022-12-18T04:42:43;1.30;99.90
56426;DHT22;42330;43.620;3.856;2022-12-18T04:45:09;1.20;99.90
56426;DHT22;42330;43.620;3.856;2022-12-18T04:47:35;1.20;99.90
56426;DHT22;42330;43.620;3.856;2022-12-18T04:50:00;1.30;99.90
56426;DHT22;42330;43.620;3.856;2022-12-18T04:52:26;1.10;99.90
56426;DHT22;42330;43.620;3.856;2022-12-18T04:54:52;1.00;99.90
56426;DHT22;42330;43.620;3.856;2022-12-18T04:57:18;0.90;99.90
56426;DHT22;42330;43.620;3.856;2022-12-18T04:59:44;1.00;99.90
56426;DHT22;42330;43.620;3.856;2022-12-18T05:02:10;1.00;99.90
56426;DHT22;42330;43.620;3.856;2022-12-18T05:04:35;1.10;99.90
56426;DHT22;42330;43.620;3.856;2022-12-18T05:07:01;1.20;99.90
56426;DHT22;42330;43.620;3.856;2022-12-18T05:09:27;1.20;99.90
56426;DHT22;42330;43.620;3.856;2022-12-18T05:11:52;1.10;99.90
56426;DHT22;42330;43.620;3.856;2022-12-18T05:14:19;1.20;99.90
56426;DHT22;42330;43.620;3.856;2022-12-18T05:16:44;1.20;99.90
56426;DHT22;42330;43.620;3.856;2022-12-18T05:19:10;1.20;99.90
56426;DHT22;42330;43.620;3.856;2022-12-18T05:21:36;1.20;99.90
56426;DHT22;42330;43.620;3.856;2022-12-18T05:24:02;1.40;99.90
56426;DHT22;42330;43.620;3.856;2022-12-18T05:26:28;1.40;99.90
56426;DHT22;42330;43.620;3.856;2022-12-18T05:28:56;1.30;99.90
56426;DHT22;42330;43.620;3.856;2022-12-18T05:31:22;1.30;99.90
56426;DHT22;42330;43.620;3.856;2022-12-18T05:33:51;1.40;99.90
56426;DHT22;42330;43.620;3.856;2022-12-18T05:36:16;1.40;99.90
56426;DHT22;42330;43.620;3.856;2022-12-18T05:38:42;1.20;99.90
56426;DHT22;42330;43.620;3.856;2022-12-18T05:41:09;1.00;99.90
56426;DHT22;42330;43.620;3.856;2022-12-18T05:43:36;0.90;99.90
56426;DHT22;42330;43.620;3.856;2022-12-18T05:46:07;0.90;99.90
56426;DHT22;42330;43.620;3.856;2022-12-18T05:48:33;0.90;99.90
56426;DHT22;42330;43.620;3.856;2022-12-18T05:51:05;0.90;99.90
56426;DHT22;42330;43.620;3.856;2022-12-18T05:53:31;0.90;99.90
56426;DHT22;42330;43.620;3.856;2022-12-18T05:56:00;1.00;99.90
56426;DHT22;42330;43.620;3.856;2022-12-18T05:58:26;1.10;99.90
56426;DHT22;42330;43.620;3.856;2022-12-18T06:00:52;1.20;99.90
56426;DHT22;42330;43.620;3.856;2022-12-18T06:03:18;1.40;99.90
56426;DHT22;42330;43.620;3.856;2022-12-18T06:05:44;1.60;99.90
56426;DHT22;42330;43.620;3.856;2022-12-18T06:08:11;1.70;99.90
56426;DHT22;42330;43.620;3.856;2022-12-18T06:10:37;1.60;99.90
56426;DHT22;42330;43.620;3.856;2022-12-18T06:13:04;1.70;99.90
56426;DHT22;42330;43.620;3.856;2022-12-18T06:15:30;1.70;99.90
56426;DHT22;42330;43.620;3.856;2022-12-18T06:17:56;1.60;99.90
56426;DHT22;42330;43.620;3.856;2022-12-18T06:20:21;1.50;99.90
56426;DHT22;42330;43.620;3.856;2022-12-18T06:22:47;1.50;99.90
56426;DHT22;42330;43.620;3.856;2022-12-18T06:25:13;1.40;99.90
56426;DHT22;42330;43.620;3.856;2022-12-18T06:27:38;1.60;99.90
56426;DHT22;42330;43.620;3.856;2022-12-18T06:30:05;1.70;99.90
56426;DHT22;42330;43.620;3.856;2022-12-18T06:32:31;1.90;99.90
56426;DHT22;42330;43.620;3.856;2022-12-18T06:34:56;2.00;99.90
56426;DHT22;42330;43.620;3.856;2022-12-18T06:37:22;2.00;99.90
56426;DHT22;42330;43.620;3.856;2022-12-18T06:39:52;2.10;99.90
56426;DHT22;42330;43.620;3.856;2022-12-18T06:42:18;2.20;99.90
56426;DHT22;42330;43.620;3.856;2022-12-18T06:44:44;2.20;99.90
56426;DHT22;42330;43.620;3.856;2022-12-18T06:47:09;2.30;99.90
56426;DHT22;42330;43.620;3.856;2022-12-18T06:49:35;2.30;99.90
56426;DHT22;42330;43.620;3.856;2022-12-18T06:52:01;2.30;99.90
56426;DHT22;42330;43.620;3.856;2022-12-18T06:54:26;2.20;99.90
56426;DHT22;42330;43.620;3.856;2022-12-18T06:56:52;2.00;99.90
56426;DHT22;42330;43.620;3.856;2022-12-18T06:59:18;2.00;99.90
56426;DHT22;42330;43.620;3.856;2022-12-18T07:01:43;2.10;99.90
56426;DHT22;42330;43.620;3.856;2022-12-18T07:04:09;2.10;99.90
56426;DHT22;42330;43.620;3.856;2022-12-18T07:06:34;2.20;99.90
56426;DHT22;42330;43.620;3.856;2022-12-18T07:09:00;2.20;99.90
56426;DHT22;42330;43.620;3.856;2022-12-18T07:11:26;2.20;99.90
56426;DHT22;42330;43.620;3.856;2022-12-18T07:13:52;2.30;99.90
56426;DHT22;42330;43.620;3.856;2022-12-18T07:16:19;2.30;99.90
56426;DHT22;42330;43.620;3.856;2022-12-18T07:18:45;2.30;99.90
56426;DHT22;42330;43.620;3.856;2022-12-18T07:21:16;2.40;99.90
56426;DHT22;42330;43.620;3.856;2022-12-18T07:23:42;2.50;99.90
56426;DHT22;42330;43.620;3.856;2022-12-18T07:26:12;2.60;99.90
56426;DHT22;42330;43.620;3.856;2022-12-18T07:28:39;2.60;99.90
56426;DHT22;42330;43.620;3.856;2022-12-18T07:31:08;2.70;99.90
56426;DHT22;42330;43.620;3.856;2022-12-18T07:33:33;2.60;99.90
56426;DHT22;42330;43.620;3.856;2022-12-18T07:36:00;2.80;99.90
56426;DHT22;42330;43.620;3.856;2022-12-18T07:38:26;2.80;99.90
56426;DHT22;42330;43.620;3.856;2022-12-18T07:40:52;2.80;99.90
56426;DHT22;42330;43.620;3.856;2022-12-18T07:43:18;3.00;99.90
56426;DHT22;42330;43.620;3.856;2022-12-18T07:45:43;3.00;99.90
56426;DHT22;42330;43.620;3.856;2022-12-18T07:48:09;3.10;99.90
56426;DHT22;42330;43.620;3.856;2022-12-18T07:50:35;3.10;99.90
56426;DHT22;42330;43.620;3.856;2022-12-18T07:53:01;3.10;99.90
56426;DHT22;42330;43.620;3.856;2022-12-18T07:55:31;3.10;99.90
56426;DHT22;42330;43.620;3.856;2022-12-18T07:57:57;3.20;99.90
56426;DHT22;42330;43.620;3.856;2022-12-18T08:00:22;3.20;99.90
56426;DHT22;42330;43.620;3.856;2022-12-18T08:02:48;3.30;99.90
56426;DHT22;42330;43.620;3.856;2022-12-18T08:05:14;3.30;99.90
56426;DHT22;42330;43.620;3.856;2022-12-18T08:07:39;3.30;99.90
56426;DHT22;42330;43.620;3.856;2022-12-18T08:10:06;3.20;99.90
56426;DHT22;42330;43.620;3.856;2022-12-18T08:12:31;3.20;99.90
56426;DHT22;42330;43.620;3.856;2022-12-18T08:14:57;3.30;99.90
56426;DHT22;42330;43.620;3.856;2022-12-18T08:17:23;3.40;99.90
56426;DHT22;42330;43.620;3.856;2022-12-18T08:19:48;3.50;99.90
56426;DHT22;42330;43.620;3.856;2022-12-18T08:22:14;3.60;99.90
56426;DHT22;42330;43.620;3.856;2022-12-18T08:24:40;3.60;99.90
56426;DHT22;42330;43.620;3.856;2022-12-18T08:27:05;3.60;99.90
56426;DHT22;42330;43.620;3.856;2022-12-18T08:29:31;3.70;99.90
56426;DHT22;42330;43.620;3.856;2022-12-18T08:31:57;3.70;99.90
56426;DHT22;42330;43.620;3.856;2022-12-18T08:34:23;3.80;99.90
56426;DHT22;42330;43.620;3.856;2022-12-18T08:36:48;3.80;99.90
56426;DHT22;42330;43.620;3.856;2022-12-18T08:39:14;3.80;99.90
56426;DHT22;42330;43.620;3.856;2022-12-18T08:41:40;3.80;99.90
56426;DHT22;42330;43.620;3.856;2022-12-18T08:44:07;3.90;99.90
56426;DHT22;42330;43.620;3.856;2022-12-18T08:46:52;3.80;99.90
56426;DHT22;42330;43.620;3.856;2022-12-18T08:49:17;3.80;99.90
56426;DHT22;42330;43.620;3.856;2022-12-18T08:51:43;3.90;99.90
56426;DHT22;42330;43.620;3.856;2022-12-18T08:54:11;3.90;99.90
56426;DHT22;42330;43.620;3.856;2022-12-18T08:56:38;3.90;99.90
56426;DHT22;42330;43.620;3.856;2022-12-18T08:59:03;3.90;99.90
56426;DHT22;42330;43.620;3.856;2022-12-18T09:01:30;3.90;99.90
56426;DHT22;42330;43.620;3.856;2022-12-18T09:03:55;4.10;99.90
56426;DHT22;42330;43.620;3.856;2022-12-18T09:06:22;4.00;99.90
56426;DHT22;42330;43.620;3.856;2022-12-18T09:08:48;4.10;99.90
56426;DHT22;42330;43.620;3.856;2022-12-18T09:11:23;4.20;99.90
56426;DHT22;42330;43.620;3.856;2022-12-18T09:13:49;4.20;99.90
56426;DHT22;42330;43.620;3.856;2022-12-18T09:16:15;4.10;99.90
56426;DHT22;42330;43.620;3.856;2022-12-18T09:18:41;4.20;99.90
56426;DHT22;42330;43.620;3.856;2022-12-18T09:21:09;4.20;99.90
56426;DHT22;42330;43.620;3.856;2022-12-18T09:23:34;4.20;99.90
56426;DHT22;42330;43.620;3.856;2022-12-18T09:26:00;4.30;99.90
56426;DHT22;42330;43.620;3.856;2022-12-18T09:28:26;4.30;99.90
56426;DHT22;42330;43.620;3.856;2022-12-18T09:30:52;4.40;99.90
56426;DHT22;42330;43.620;3.856;2022-12-18T09:33:18;4.40;99.90
56426;DHT22;42330;43.620;3.856;2022-12-18T09:35:44;4.40;99.90
56426;DHT22;42330;43.620;3.856;2022-12-18T09:38:18;4.50;99.90
56426;DHT22;42330;43.620;3.856;2022-12-18T09:40:46;4.50;99.90
56426;DHT22;42330;43.620;3.856;2022-12-18T09:43:22;4.60;99.90
56426;DHT22;42330;43.620;3.856;2022-12-18T09:45:53;4.60;99.90
56426;DHT22;42330;43.620;3.856;2022-12-18T09:48:31;4.70;99.90
56426;DHT22;42330;43.620;3.856;2022-12-18T09:51:10;4.70;99.90
56426;DHT22;42330;43.620;3.856;2022-12-18T09:53:38;4.70;99.90
56426;DHT22;42330;43.620;3.856;2022-12-18T09:56:16;4.70;99.90
56426;DHT22;42330;43.620;3.856;2022-12-18T10:01:18;4.80;99.90
56426;DHT22;42330;43.620;3.856;2022-12-18T10:03:44;4.90;99.90
56426;DHT22;42330;43.620;3.856;2022-12-18T10:06:59;4.90;99.90
56426;DHT22;42330;43.620;3.856;2022-12-18T10:09:36;4.90;99.90
56426;DHT22;42330;43.620;3.856;2022-12-18T10:17:45;5.10;99.90
56426;DHT22;42330;43.620;3.856;2022-12-18T10:20:38;5.20;99.90
56426;DHT22;42330;43.620;3.856;2022-12-18T10:28:14;5.20;99.90
56426;DHT22;42330;43.620;3.856;2022-12-18T10:30:41;5.30;99.90
56426;DHT22;42330;43.620;3.856;2022-12-18T10:33:18;5.40;99.90
56426;DHT22;42330;43.620;3.856;2022-12-18T10:35:45;5.30;99.90
56426;DHT22;42330;43.620;3.856;2022-12-18T10:41:23;5.40;99.90
56426;DHT22;42330;43.620;3.856;2022-12-18T10:44:30;5.50;99.90
56426;DHT22;42330;43.620;3.856;2022-12-18T10:47:11;5.50;99.90
56426;DHT22;42330;43.620;3.856;2022-12-18T10:49:42;5.40;99.90
56426;DHT22;42330;43.620;3.856;2022-12-18T10:52:18;5.50;99.90
56426;DHT22;42330;43.620;3.856;2022-12-18T10:55:01;5.50;99.90
56426;DHT22;42330;43.620;3.856;2022-12-18T10:57:35;5.60;99.90
56426;DHT22;42330;43.620;3.856;2022-12-18T11:00:30;5.60;99.90
56426;DHT22;42330;43.620;3.856;2022-12-18T11:02:56;5.70;99.90
56426;DHT22;42330;43.620;3.856;2022-12-18T11:05:30;5.70;99.90
56426;DHT22;42330;43.620;3.856;2022-12-18T11:07:57;5.80;99.90
56426;DHT22;42330;43.620;3.856;2022-12-18T11:10:32;5.90;99.90
56426;DHT22;42330;43.620;3.856;2022-12-18T11:13:20;5.90;99.90
56426;DHT22;42330;43.620;3.856;2022-12-18T11:15:47;6.00;99.90
56426;DHT22;42330;43.620;3.856;2022-12-18T11:18:42;6.00;99.90
56426;DHT22;42330;43.620;3.856;2022-12-18T11:21:10;6.00;99.90
56426;DHT22;42330;43.620;3.856;2022-12-18T11:23:50;6.00;99.90
56426;DHT22;42330;43.620;3.856;2022-12-18T11:26:16;6.00;99.90
56426;DHT22;42330;43.620;3.856;2022-12-18T11:29:06;6.10;99.90
56426;DHT22;42330;43.620;3.856;2022-12-18T11:31:32;6.10;99.90
56426;DHT22;42330;43.620;3.856;2022-12-18T11:36:46;6.20;99.90
56426;DHT22;42330;43.620;3.856;2022-12-18T11:39:39;6.20;99.90
56426;DHT22;42330;43.620;3.856;2022-12-18T11:42:14;6.30;99.90
56426;DHT22;42330;43.620;3.856;2022-12-18T11:44:55;6.30;99.90
56426;DHT22;42330;43.620;3.856;2022-12-18T11:53:03;6.40;99.90
56426;DHT22;42330;43.620;3.856;2022-12-18T11:55:49;6.40;99.90
56426;DHT22;42330;43.620;3.856;2022-12-18T12:15:29;6.60;99.90
56426;DHT22;42330;43.620;3.856;2022-12-18T12:20:56;6.70;99.90
56426;DHT22;42330;43.620;3.856;2022-12-18T12:26:35;6.70;99.90
56426;DHT22;42330;43.620;3.856;2022-12-18T12:29:27;6.80;99.90
56426;DHT22;42330;43.620;3.856;2022-12-18T12:32:25;6.80;99.90
56426;DHT22;42330;43.620;3.856;2022-12-18T12:35:22;6.90;99.90
56426;DHT22;42330;43.620;3.856;2022-12-18T12:40:42;6.90;99.90
56426;DHT22;42330;43.620;3.856;2022-12-18T12:43:45;6.90;99.90
56426;DHT22;42330;43.620;3.856;2022-12-18T12:46:12;6.90;99.90
56426;DHT22;42330;43.620;3.856;2022-12-18T12:51:34;7.00;99.90
56426;DHT22;42330;43.620;3.856;2022-12-18T12:54:05;7.00;99.90
56426;DHT22;42330;43.620;3.856;2022-12-18T12:57:09;7.10;99.90
56426;DHT22;42330;43.620;3.856;2022-12-18T13:08:09;7.10;99.90
56426;DHT22;42330;43.620;3.856;2022-12-18T13:10:35;7.10;99.90
56426;DHT22;42330;43.620;3.856;2022-12-18T13:13:06;7.10;99.90
56426;DHT22;42330;43.620;3.856;2022-12-18T13:16:08;7.10;99.90
56426;DHT22;42330;43.620;3.856;2022-12-18T13:18:34;7.20;99.90
56426;DHT22;42330;43.620;3.856;2022-12-18T13:23:27;7.20;99.90
56426;DHT22;42330;43.620;3.856;2022-12-18T13:25:59;7.20;99.90
56426;DHT22;42330;43.620;3.856;2022-12-18T13:31:11;7.30;99.90
56426;DHT22;42330;43.620;3.856;2022-12-18T13:41:39;7.30;99.90
56426;DHT22;42330;43.620;3.856;2022-12-18T13:46:47;7.30;99.90
56426;DHT22;42330;43.620;3.856;2022-12-18T13:49:18;7.30;99.90
56426;DHT22;42330;43.620;3.856;2022-12-18T13:51:51;7.40;99.90
56426;DHT22;42330;43.620;3.856;2022-12-18T13:54:38;7.50;99.90
56426;DHT22;42330;43.620;3.856;2022-12-18T13:57:12;7.50;99.90
56426;DHT22;42330;43.620;3.856;2022-12-18T13:59:50;7.50;99.90
56426;DHT22;42330;43.620;3.856;2022-12-18T14:02:20;7.50;99.90
56426;DHT22;42330;43.620;3.856;2022-12-18T14:04:47;7.50;99.90
56426;DHT22;42330;43.620;3.856;2022-12-18T14:07:24;7.50;99.90
56426;DHT22;42330;43.620;3.856;2022-12-18T14:09:53;7.50;99.90
56426;DHT22;42330;43.620;3.856;2022-12-18T14:12:32;7.50;99.90
56426;DHT22;42330;43.620;3.856;2022-12-18T14:20:25;7.60;99.90
56426;DHT22;42330;43.620;3.856;2022-12-18T14:22:51;7.70;99.90
56426;DHT22;42330;43.620;3.856;2022-12-18T14:25:19;7.70;99.90
56426;DHT22;42330;43.620;3.856;2022-12-18T14:27:49;7.70;99.90
56426;DHT22;42330;43.620;3.856;2022-12-18T14:30:36;7.70;99.90
56426;DHT22;42330;43.620;3.856;2022-12-18T14:33:22;7.70;99.90
56426;DHT22;42330;43.620;3.856;2022-12-18T14:41:01;7.80;99.90
56426;DHT22;42330;43.620;3.856;2022-12-18T14:43:29;7.80;99.90
56426;DHT22;42330;43.620;3.856;2022-12-18T14:45:56;7.80;99.90
56426;DHT22;42330;43.620;3.856;2022-12-18T14:48:30;7.80;99.90
56426;DHT22;42330;43.620;3.856;2022-12-18T14:56:12;7.90;99.90
56426;DHT22;42330;43.620;3.856;2022-12-18T14:58:38;7.90;99.90
56426;DHT22;42330;43.620;3.856;2022-12-18T15:01:05;7.90;99.90
56426;DHT22;42330;43.620;3.856;2022-12-18T15:03:31;7.90;99.90
56426;DHT22;42330;43.620;3.856;2022-12-18T15:06:26;7.90;99.90
56426;DHT22;42330;43.620;3.856;2022-12-18T15:08:52;7.90;99.90
56426;DHT22;42330;43.620;3.856;2022-12-18T15:11:43;7.90;99.90
56426;DHT22;42330;43.620;3.856;2022-12-18T15:14:43;7.90;99.90
56426;DHT22;42330;43.620;3.856;2022-12-18T15:17:20;7.90;99.90
56426;DHT22;42330;43.620;3.856;2022-12-18T15:19:48;7.90;99.90
56426;DHT22;42330;43.620;3.856;2022-12-18T15:22:35;7.90;99.90
56426;DHT22;42330;43.620;3.856;2022-12-18T15:25:02;7.90;99.90
56426;DHT22;42330;43.620;3.856;2022-12-18T15:27:35;8.00;99.90
56426;DHT22;42330;43.620;3.856;2022-12-18T15:32:42;7.90;99.90
56426;DHT22;42330;43.620;3.856;2022-12-18T15:37:34;8.00;99.90
56426;DHT22;42330;43.620;3.856;2022-12-18T15:39:59;7.90;99.90
56426;DHT22;42330;43.620;3.856;2022-12-18T15:42:25;7.90;99.90
56426;DHT22;42330;43.620;3.856;2022-12-18T15:45:13;7.90;99.90
56426;DHT22;42330;43.620;3.856;2022-12-18T15:47:39;7.90;99.90
56426;DHT22;42330;43.620;3.856;2022-12-18T15:50:05;7.90;99.90
56426;DHT22;42330;43.620;3.856;2022-12-18T15:52:40;7.90;99.90
56426;DHT22;42330;43.620;3.856;2022-12-18T15:55:15;7.90;99.90
56426;DHT22;42330;43.620;3.856;2022-12-18T15:58:00;7.90;99.90
56426;DHT22;42330;43.620;3.856;2022-12-18T16:00:25;7.90;99.90
56426;DHT22;42330;43.620;3.856;2022-12-18T16:02:51;7.90;99.90
56426;DHT22;42330;43.620;3.856;2022-12-18T16:05:18;7.90;99.90
56426;DHT22;42330;43.620;3.856;2022-12-18T16:07:45;7.90;99.90
56426;DHT22;42330;43.620;3.856;2022-12-18T16:10:11;7.90;99.90
56426;DHT22;42330;43.620;3.856;2022-12-18T16:12:37;7.90;99.90
56426;DHT22;42330;43.620;3.856;2022-12-18T16:15:04;7.90;99.90
56426;DHT22;42330;43.620;3.856;2022-12-18T16:17:31;7.90;99.90
56426;DHT22;42330;43.620;3.856;2022-12-18T16:19:57;7.90;99.90
56426;DHT22;42330;43.620;3.856;2022-12-18T16:22:28;7.90;99.90
56426;DHT22;42330;43.620;3.856;2022-12-18T16:24:55;7.90;99.90
56426;DHT22;42330;43.620;3.856;2022-12-18T16:27:22;7.80;99.90
56426;DHT22;42330;43.620;3.856;2022-12-18T16:29:48;7.90;99.90
56426;DHT22;42330;43.620;3.856;2022-12-18T16:32:19;7.80;99.90
56426;DHT22;42330;43.620;3.856;2022-12-18T16:34:46;7.80;99.90
56426;DHT22;42330;43.620;3.856;2022-12-18T16:37:14;7.80;99.90
56426;DHT22;42330;43.620;3.856;2022-12-18T16:39:40;7.80;99.90
56426;DHT22;42330;43.620;3.856;2022-12-18T16:42:13;7.80;99.90
56426;DHT22;42330;43.620;3.856;2022-12-18T16:44:42;7.80;99.90
56426;DHT22;42330;43.620;3.856;2022-12-18T16:47:08;7.90;99.90
56426;DHT22;42330;43.620;3.856;2022-12-18T16:49:34;7.90;99.90
56426;DHT22;42330;43.620;3.856;2022-12-18T16:52:00;8.00;99.90
56426;DHT22;42330;43.620;3.856;2022-12-18T16:54:27;7.90;99.90
56426;DHT22;42330;43.620;3.856;2022-12-18T16:56:55;7.90;99.90
56426;DHT22;42330;43.620;3.856;2022-12-18T16:59:21;8.00;99.90
56426;DHT22;42330;43.620;3.856;2022-12-18T17:01:47;8.00;99.90
56426;DHT22;42330;43.620;3.856;2022-12-18T17:04:13;8.00;99.90
56426;DHT22;42330;43.620;3.856;2022-12-18T17:06:41;7.90;99.90
56426;DHT22;42330;43.620;3.856;2022-12-18T17:09:13;8.00;99.90
56426;DHT22;42330;43.620;3.856;2022-12-18T17:11:41;7.90;99.90
56426;DHT22;42330;43.620;3.856;2022-12-18T17:14:13;8.00;99.90
56426;DHT22;42330;43.620;3.856;2022-12-18T17:16:39;8.00;99.90
56426;DHT22;42330;43.620;3.856;2022-12-18T17:19:05;8.00;99.90
56426;DHT22;42330;43.620;3.856;2022-12-18T17:21:31;8.00;99.90
56426;DHT22;42330;43.620;3.856;2022-12-18T17:24:00;8.00;99.90
56426;DHT22;42330;43.620;3.856;2022-12-18T17:26:26;8.00;99.90
56426;DHT22;42330;43.620;3.856;2022-12-18T17:28:52;8.00;99.90
56426;DHT22;42330;43.620;3.856;2022-12-18T17:31:21;8.00;99.90
56426;DHT22;42330;43.620;3.856;2022-12-18T17:33:48;8.00;99.90
56426;DHT22;42330;43.620;3.856;2022-12-18T17:36:15;8.00;99.90
56426;DHT22;42330;43.620;3.856;2022-12-18T17:38:40;8.00;99.90
56426;DHT22;42330;43.620;3.856;2022-12-18T17:41:08;8.00;99.90
56426;DHT22;42330;43.620;3.856;2022-12-18T17:43:35;8.00;99.90
56426;DHT22;42330;43.620;3.856;2022-12-18T17:46:02;7.90;99.90
56426;DHT22;42330;43.620;3.856;2022-12-18T17:48:28;7.90;99.90
56426;DHT22;42330;43.620;3.856;2022-12-18T17:50:54;7.90;99.90
56426;DHT22;42330;43.620;3.856;2022-12-18T17:53:19;7.90;99.90
56426;DHT22;42330;43.620;3.856;2022-12-18T17:55:53;7.90;99.90
56426;DHT22;42330;43.620;3.856;2022-12-18T17:58:19;8.00;99.90
56426;DHT22;42330;43.620;3.856;2022-12-18T18:00:45;8.00;99.90
56426;DHT22;42330;43.620;3.856;2022-12-18T18:03:11;8.00;99.90
56426;DHT22;42330;43.620;3.856;2022-12-18T18:05:36;8.00;99.90
56426;DHT22;42330;43.620;3.856;2022-12-18T18:08:02;8.00;99.90
56426;DHT22;42330;43.620;3.856;2022-12-18T18:10:27;8.00;99.90